createdAt,value
2023-05-01T00:07:40.834Z,20.9
2023-05-01T00:17:43.387Z,20.8
2023-05-01T00:27:45.510Z,20.9
2023-05-01T00:37:47.685Z,20.8
2023-05-01T00:47:49.999Z,20.8
2023-05-01T00:57:51.800Z,20.7
2023-05-01T01:48:03.364Z,20.5
2023-05-01T02:18:10.216Z,20.6
2023-05-01T02:28:12.325Z,20.5
2023-05-01T04:18:36.547Z,20.6
2023-05-01T04:58:45.714Z,21.2
2023-05-01T06:29:04.852Z,23.4
2023-05-01T10:10:15.432Z,24.4
2023-05-01T10:20:02.377Z,24.4
2023-05-01T10:30:04.880Z,24.4
2023-05-01T10:40:07.264Z,24.5
2023-05-01T10:50:09.715Z,24.6
2023-05-01T11:00:11.952Z,24.8
2023-05-01T11:10:14.644Z,25
2023-05-01T11:20:17.126Z,25
2023-05-01T11:30:19.111Z,24.9
2023-05-01T11:40:21.538Z,24.9
2023-05-01T12:00:26.341Z,25.1
2023-05-01T12:10:28.160Z,25.2
2023-05-01T14:40:59.716Z,24.6
2023-05-01T15:01:04.343Z,24.2
2023-05-01T15:11:06.529Z,23.9
2023-05-01T15:21:08.519Z,23.8
2023-05-01T16:01:17.332Z,22.8
2023-05-01T16:11:19.122Z,22.6
2023-05-01T16:21:21.721Z,22.6
2023-05-01T16:31:27.323Z,22.6
2023-05-01T16:41:26.261Z,23.2
2023-05-01T16:51:28.857Z,23.7
2023-05-01T17:01:31.440Z,23.9
2023-05-01T17:11:33.584Z,24
2023-05-01T17:21:35.284Z,23.9
2023-05-01T17:31:38.015Z,23.8
2023-05-01T17:41:40.369Z,24.1
2023-05-01T18:01:44.154Z,23.9
2023-05-01T18:11:46.092Z,23.7
2023-05-01T18:21:48.256Z,23.5
2023-05-01T18:31:50.055Z,23.1
2023-05-01T18:41:52.702Z,22.8
2023-05-01T18:51:54.698Z,22.6
2023-05-01T19:01:56.884Z,22.4
2023-05-01T19:11:58.578Z,22.2
2023-05-01T19:22:00.697Z,22.1
2023-05-01T19:32:03.315Z,22
2023-05-01T19:42:05.449Z,21.9
2023-05-01T19:52:07.601Z,21.8
2023-05-01T20:02:10.223Z,21.7
2023-05-01T20:22:14.406Z,21.6
2023-05-01T21:02:23.044Z,21.4
2023-05-01T21:22:27.037Z,21.3
2023-05-01T21:42:31.459Z,21.2
2023-05-01T22:02:36.514Z,21.2
2023-05-01T22:12:38.753Z,21.1
2023-05-01T22:32:42.684Z,21.1
2023-05-01T22:42:44.580Z,21
2023-05-01T22:52:46.868Z,21
2023-05-01T23:02:49.654Z,21
2023-05-01T23:12:51.462Z,21
2023-05-01T23:32:56.367Z,20.9
2023-05-01T23:53:01.325Z,20.9
